Time;durP1;ratioP1;P1;durP2;ratioP2;P2;SDS_P1;SDS_P2;PMS_P1;PMS_P2;Temp;Humidity;BMP_temperature;BMP_pressure;BME280_temperature;BME280_humidity;BME280_pressure;Samples;Min_cycle;Max_cycle;Signal;HPM_P1;HPM_P2
2021/09/18 00:02:09;;;;;;;1.80;1.17;;;;;;;;;;5080360;28;20058;-78
2021/09/18 00:04:36;;;;;;;2.22;1.13;;;;;;;;;;5082879;28;20066;-78
2021/09/18 00:07:02;;;;;;;2.17;1.10;;;;;;;;;;5078027;28;20032;-78
2021/09/18 00:09:28;;;;;;;1.98;0.95;;;;;;;;;;5075105;28;20069;-79
2021/09/18 00:11:55;;;;;;;1.55;0.90;;;;;;;;;;5080367;28;20058;-78
2021/09/18 00:14:22;;;;;;;2.08;1.00;;;;;;;;;;5081446;28;20418;-78
2021/09/18 00:16:48;;;;;;;1.70;1.00;;;;;;;;;;5085587;28;20282;-78
2021/09/18 00:19:15;;;;;;;2.60;1.10;;;;;;;;;;5084817;28;20060;-78
2021/09/18 00:21:41;;;;;;;3.55;1.23;;;;;;;;;;5066818;28;20068;-77
2021/09/18 00:24:08;;;;;;;1.55;0.90;;;;;;;;;;5066931;28;20060;-77
2021/09/18 00:26:34;;;;;;;1.88;1.20;;;;;;;;;;5079616;28;20072;-77
2021/09/18 00:29:01;;;;;;;2.17;1.00;;;;;;;;;;5072752;28;20052;-78
2021/09/18 00:31:28;;;;;;;1.52;0.95;;;;;;;;;;5065051;28;20102;-78
2021/09/18 00:33:54;;;;;;;1.77;1.20;;;;;;;;;;5068738;28;20487;-78
2021/09/18 00:36:20;;;;;;;2.58;1.15;;;;;;;;;;5053818;28;20037;-79
2021/09/18 00:38:47;;;;;;;2.17;0.98;;;;;;;;;;5086329;28;20502;-78
2021/09/18 00:41:13;;;;;;;1.58;0.98;;;;;;;;;;5083334;28;20056;-78
2021/09/18 00:43:40;;;;;;;1.42;0.82;;;;;;;;;;5080363;28;20148;-79
2021/09/18 00:46:06;;;;;;;1.95;1.00;;;;;;;;;;5084140;28;20099;-78
2021/09/18 00:48:32;;;;;;;3.20;1.00;;;;;;;;;;5083859;28;20525;-79
2021/09/18 00:50:59;;;;;;;2.95;0.90;;;;;;;;;;5085049;28;20052;-79
2021/09/18 00:53:26;;;;;;;2.35;1.20;;;;;;;;;;5085082;28;20059;-78
2021/09/18 00:55:52;;;;;;;2.80;1.10;;;;;;;;;;5081688;28;20061;-79
2021/09/18 00:58:19;;;;;;;1.70;1.00;;;;;;;;;;5083029;28;20044;-78
2021/09/18 01:00:45;;;;;;;4.00;1.10;;;;;;;;;;5067820;28;20067;-79
2021/09/18 01:03:12;;;;;;;1.88;1.00;;;;;;;;;;5045714;28;20041;-78
2021/09/18 01:05:38;;;;;;;1.35;0.95;;;;;;;;;;5075057;28;20068;-79
2021/09/18 01:08:05;;;;;;;2.50;1.20;;;;;;;;;;5067664;28;20571;-78
2021/09/18 01:10:31;;;;;;;1.60;1.00;;;;;;;;;;5080602;28;20063;-77
2021/09/18 01:13:05;;;;;;;2.65;1.17;;;;;;;;;;5075174;28;20633;-78
2021/09/18 01:15:32;;;;;;;2.70;1.13;;;;;;;;;;5072991;28;20056;-78
2021/09/18 01:17:59;;;;;;;1.90;1.20;;;;;;;;;;5084067;28;20063;-78
2021/09/18 01:20:33;;;;;;;1.25;0.82;;;;;;;;;;5079604;28;20141;-78
2021/09/18 01:23:01;;;;;;;1.63;1.00;;;;;;;;;;5081934;28;20052;-78
2021/09/18 01:25:28;;;;;;;1.98;1.20;;;;;;;;;;5085505;28;20068;-78
2021/09/18 01:27:54;;;;;;;1.88;1.08;;;;;;;;;;5084268;28;20047;-78
2021/09/18 01:30:22;;;;;;;2.80;1.08;;;;;;;;;;5074898;28;20060;-79
2021/09/18 01:32:49;;;;;;;2.08;1.23;;;;;;;;;;5068888;28;20523;-77
2021/09/18 01:35:15;;;;;;;1.80;1.10;;;;;;;;;;5081815;28;20055;-77
2021/09/18 01:37:46;;;;;;;1.73;1.00;;;;;;;;;;5085253;28;20554;-77
2021/09/18 01:40:14;;;;;;;2.65;1.20;;;;;;;;;;5083377;28;20060;-76
2021/09/18 01:42:44;;;;;;;1.80;1.02;;;;;;;;;;5081895;28;20055;-77
2021/09/18 01:45:11;;;;;;;2.13;1.20;;;;;;;;;;5084314;28;20055;-78
2021/09/18 01:47:41;;;;;;;1.45;1.08;;;;;;;;;;5065754;28;20056;-78
2021/09/18 01:50:19;;;;;;;1.40;0.90;;;;;;;;;;5073370;28;20035;-78
2021/09/18 01:52:48;;;;;;;2.00;1.30;;;;;;;;;;5084207;28;20567;-78
2021/09/18 01:55:16;;;;;;;1.50;1.00;;;;;;;;;;5082758;28;20036;-78
2021/09/18 01:57:43;;;;;;;1.92;1.00;;;;;;;;;;5070741;28;20075;-78
2021/09/18 02:00:11;;;;;;;3.50;1.17;;;;;;;;;;5073407;28;20068;-77
2021/09/18 02:02:37;;;;;;;2.17;1.20;;;;;;;;;;5069039;28;20045;-77
2021/09/18 02:05:04;;;;;;;2.25;1.20;;;;;;;;;;5077645;28;20056;-77
2021/09/18 02:07:30;;;;;;;1.50;0.98;;;;;;;;;;5062673;28;20080;-77
2021/09/18 02:09:57;;;;;;;2.10;1.10;;;;;;;;;;5062762;28;20060;-77
2021/09/18 02:12:23;;;;;;;1.80;1.15;;;;;;;;;;5064757;28;20059;-77
2021/09/18 02:14:49;;;;;;;1.90;1.02;;;;;;;;;;5076121;28;20536;-77
2021/09/18 02:17:16;;;;;;;2.75;0.90;;;;;;;;;;5084233;28;20109;-78
2021/09/18 02:19:42;;;;;;;2.05;1.20;;;;;;;;;;5081926;28;20067;-78
2021/09/18 02:22:09;;;;;;;2.15;1.00;;;;;;;;;;5084229;28;20060;-78
2021/09/18 02:24:35;;;;;;;2.38;1.20;;;;;;;;;;5069143;28;20492;-78
2021/09/18 02:27:01;;;;;;;2.13;1.17;;;;;;;;;;5082729;28;20067;-78
2021/09/18 02:29:28;;;;;;;1.77;1.10;;;;;;;;;;5083057;28;20507;-78
2021/09/18 02:31:54;;;;;;;1.85;1.20;;;;;;;;;;5084639;28;20067;-78
2021/09/18 02:34:21;;;;;;;2.60;1.05;;;;;;;;;;5084966;28;20056;-78
2021/09/18 02:36:47;;;;;;;1.60;0.80;;;;;;;;;;5083363;28;20060;-78
2021/09/18 02:39:13;;;;;;;1.90;1.00;;;;;;;;;;5082427;28;20064;-79
2021/09/18 02:41:40;;;;;;;1.60;1.05;;;;;;;;;;5062049;28;20616;-78
2021/09/18 02:44:06;;;;;;;2.53;1.20;;;;;;;;;;5083085;28;20052;-78
2021/09/18 02:46:32;;;;;;;1.92;1.10;;;;;;;;;;5082325;28;20060;-78
2021/09/18 02:48:59;;;;;;;1.65;1.08;;;;;;;;;;5075628;28;20047;-78
2021/09/18 02:51:25;;;;;;;2.35;1.35;;;;;;;;;;5084229;28;20063;-77
2021/09/18 02:53:52;;;;;;;2.45;1.40;;;;;;;;;;5084751;28;20070;-78
2021/09/18 02:56:18;;;;;;;2.55;1.17;;;;;;;;;;5082316;28;20059;-78
2021/09/18 02:58:45;;;;;;;2.08;1.10;;;;;;;;;;5077013;28;20056;-77
2021/09/18 03:01:11;;;;;;;2.67;1.25;;;;;;;;;;5060873;28;20064;-78
2021/09/18 03:03:37;;;;;;;2.30;1.20;;;;;;;;;;5061676;28;20056;-78
2021/09/18 03:06:04;;;;;;;2.42;1.25;;;;;;;;;;5076868;28;20058;-78
2021/09/18 03:08:30;;;;;;;2.78;1.15;;;;;;;;;;5074436;28;20059;-78
2021/09/18 03:10:57;;;;;;;1.10;0.90;;;;;;;;;;5082926;28;20059;-78
2021/09/18 03:13:23;;;;;;;2.20;1.00;;;;;;;;;;5072847;28;20064;-77
2021/09/18 03:15:50;;;;;;;1.80;1.10;;;;;;;;;;5073722;28;20071;-78
2021/09/18 03:18:16;;;;;;;2.03;0.88;;;;;;;;;;5072548;28;20554;-78
2021/09/18 03:20:42;;;;;;;1.70;1.10;;;;;;;;;;5083757;28;20079;-78
2021/09/18 03:23:09;;;;;;;2.05;1.10;;;;;;;;;;5077088;28;20597;-78
2021/09/18 03:25:36;;;;;;;1.30;0.90;;;;;;;;;;5063767;28;20060;-78
2021/09/18 03:28:02;;;;;;;1.50;1.00;;;;;;;;;;5063798;28;20059;-78
2021/09/18 03:30:28;;;;;;;1.70;0.90;;;;;;;;;;5079921;28;20048;-77
2021/09/18 03:32:55;;;;;;;2.80;0.93;;;;;;;;;;5083915;28;20522;-78
2021/09/18 03:35:21;;;;;;;2.28;1.33;;;;;;;;;;5067351;28;20052;-78
2021/09/18 03:37:48;;;;;;;1.48;0.88;;;;;;;;;;5083512;28;20060;-78
2021/09/18 03:40:14;;;;;;;2.50;1.10;;;;;;;;;;5072951;28;20067;-78
2021/09/18 03:42:41;;;;;;;2.53;1.02;;;;;;;;;;5079207;28;20076;-78
2021/09/18 03:45:07;;;;;;;1.80;1.05;;;;;;;;;;5088450;28;20164;-78
2021/09/18 03:47:34;;;;;;;1.52;0.95;;;;;;;;;;5085722;28;20171;-78
2021/09/18 03:50:00;;;;;;;1.67;1.10;;;;;;;;;;5078351;28;20052;-78
2021/09/18 03:52:28;;;;;;;1.40;1.00;;;;;;;;;;5085473;28;20768;-78
2021/09/18 03:54:55;;;;;;;1.30;0.90;;;;;;;;;;5082787;28;20054;-79
2021/09/18 03:57:21;;;;;;;1.08;0.90;;;;;;;;;;5087379;28;20072;-79
2021/09/18 03:59:47;;;;;;;2.92;1.23;;;;;;;;;;5081944;28;20052;-79
2021/09/18 04:02:14;;;;;;;1.60;1.00;;;;;;;;;;5075656;28;20068;-79
2021/09/18 04:04:40;;;;;;;2.15;1.02;;;;;;;;;;5064837;28;20056;-79
2021/09/18 04:07:07;;;;;;;1.95;0.93;;;;;;;;;;5074673;28;20052;-79
2021/09/18 04:09:33;;;;;;;2.13;1.25;;;;;;;;;;5072951;28;20058;-79
2021/09/18 04:11:59;;;;;;;1.40;0.90;;;;;;;;;;5080482;28;20059;-79
2021/09/18 04:14:26;;;;;;;2.15;1.10;;;;;;;;;;5077266;28;20701;-79
2021/09/18 04:16:52;;;;;;;1.65;1.08;;;;;;;;;;5084844;28;20067;-79
2021/09/18 04:19:19;;;;;;;1.80;1.02;;;;;;;;;;5077120;28;20060;-78
2021/09/18 04:21:45;;;;;;;2.08;1.00;;;;;;;;;;5085375;28;20068;-78
2021/09/18 04:24:11;;;;;;;2.00;1.10;;;;;;;;;;5084851;28;20024;-76
2021/09/18 04:26:38;;;;;;;1.08;0.77;;;;;;;;;;5084730;28;20047;-78
2021/09/18 04:29:04;;;;;;;1.42;0.80;;;;;;;;;;5085691;28;20044;-78
2021/09/18 04:31:31;;;;;;;1.33;0.88;;;;;;;;;;5077950;28;20060;-77
2021/09/18 04:33:58;;;;;;;1.48;0.98;;;;;;;;;;5086001;28;20060;-79
2021/09/18 04:36:24;;;;;;;3.00;1.10;;;;;;;;;;5083103;28;20075;-78
2021/09/18 04:38:50;;;;;;;3.25;0.90;;;;;;;;;;5085111;28;20052;-79
2021/09/18 04:41:18;;;;;;;2.10;1.20;;;;;;;;;;5084919;28;20044;-78
2021/09/18 04:43:45;;;;;;;1.70;1.10;;;;;;;;;;5085381;28;20070;-79
2021/09/18 04:46:11;;;;;;;1.88;1.00;;;;;;;;;;5085781;28;20058;-78
2021/09/18 04:48:37;;;;;;;1.52;0.80;;;;;;;;;;5085930;28;20056;-78
2021/09/18 04:51:04;;;;;;;1.20;0.88;;;;;;;;;;5086090;27;20055;-78
2021/09/18 04:53:30;;;;;;;1.63;0.98;;;;;;;;;;5082255;28;20837;-78
2021/09/18 04:55:57;;;;;;;1.73;1.00;;;;;;;;;;5083848;28;20117;-78
2021/09/18 04:58:23;;;;;;;1.83;0.90;;;;;;;;;;5085936;28;20060;-78
2021/09/18 05:00:49;;;;;;;1.45;1.02;;;;;;;;;;5060014;28;20658;-78
2021/09/18 05:03:16;;;;;;;1.77;0.80;;;;;;;;;;5062016;28;20067;-78
2021/09/18 05:05:43;;;;;;;1.17;0.88;;;;;;;;;;5067507;28;20370;-78
2021/09/18 05:08:10;;;;;;;1.83;0.90;;;;;;;;;;5072214;28;20063;-78
2021/09/18 05:10:36;;;;;;;1.45;0.95;;;;;;;;;;5070794;28;20055;-79
2021/09/18 05:13:03;;;;;;;2.10;1.15;;;;;;;;;;5085788;28;20063;-78
2021/09/18 05:15:30;;;;;;;1.83;1.10;;;;;;;;;;5085371;28;20448;-76
2021/09/18 05:17:56;;;;;;;1.42;0.90;;;;;;;;;;5081849;28;20076;-78
2021/09/18 05:20:22;;;;;;;2.50;0.98;;;;;;;;;;5084776;28;20532;-77
2021/09/18 05:22:49;;;;;;;1.48;1.08;;;;;;;;;;5082101;28;20270;-77
2021/09/18 05:25:15;;;;;;;1.33;0.90;;;;;;;;;;5085069;28;20031;-78
2021/09/18 05:27:42;;;;;;;2.53;1.10;;;;;;;;;;5083955;28;20072;-78
2021/09/18 05:30:09;;;;;;;3.47;1.02;;;;;;;;;;5074341;28;20063;-78
2021/09/18 05:32:35;;;;;;;1.85;1.00;;;;;;;;;;5083378;28;20075;-78
2021/09/18 05:35:02;;;;;;;2.00;1.17;;;;;;;;;;5083883;28;20123;-78
2021/09/18 05:37:29;;;;;;;2.30;1.08;;;;;;;;;;5082315;28;20260;-77
2021/09/18 05:39:55;;;;;;;1.60;0.98;;;;;;;;;;5084603;28;20071;-78
2021/09/18 05:42:21;;;;;;;1.70;1.00;;;;;;;;;;5077140;28;20063;-78
2021/09/18 05:44:48;;;;;;;2.17;1.10;;;;;;;;;;5079715;28;20051;-78
2021/09/18 05:47:14;;;;;;;2.58;1.10;;;;;;;;;;5075903;28;20072;-78
2021/09/18 05:49:41;;;;;;;1.73;1.00;;;;;;;;;;5082012;28;20559;-77
2021/09/18 05:52:07;;;;;;;1.65;1.00;;;;;;;;;;5084504;28;20048;-78
2021/09/18 05:54:34;;;;;;;1.67;1.10;;;;;;;;;;5085441;28;20063;-78
2021/09/18 05:57:00;;;;;;;1.45;0.90;;;;;;;;;;5085208;28;20597;-78
2021/09/18 05:59:27;;;;;;;1.60;1.00;;;;;;;;;;5067859;28;20072;-78
2021/09/18 06:01:53;;;;;;;1.95;1.00;;;;;;;;;;5070860;28;20071;-78
2021/09/18 06:04:19;;;;;;;1.67;0.95;;;;;;;;;;5066420;28;20056;-78
2021/09/18 06:06:46;;;;;;;1.58;1.00;;;;;;;;;;5049565;28;20112;-79
2021/09/18 06:09:12;;;;;;;3.15;1.00;;;;;;;;;;5051866;28;20048;-79
2021/09/18 06:11:39;;;;;;;1.60;0.90;;;;;;;;;;5062811;28;20125;-78
2021/09/18 06:14:05;;;;;;;2.00;1.20;;;;;;;;;;5061369;28;20038;-78
2021/09/18 06:16:32;;;;;;;2.28;1.23;;;;;;;;;;5063088;28;20060;-79
2021/09/18 06:18:59;;;;;;;2.40;1.25;;;;;;;;;;5067205;28;20602;-80
2021/09/18 06:21:25;;;;;;;1.95;1.17;;;;;;;;;;5064477;28;20064;-77
2021/09/18 06:23:51;;;;;;;1.85;1.00;;;;;;;;;;5062276;28;20056;-78
2021/09/18 06:26:18;;;;;;;1.67;1.10;;;;;;;;;;5063046;28;21000;-78
2021/09/18 06:28:44;;;;;;;1.52;1.17;;;;;;;;;;5064906;28;20043;-82
2021/09/18 06:31:11;;;;;;;5.68;1.40;;;;;;;;;;5059716;28;20107;-81
2021/09/18 06:33:37;;;;;;;2.05;1.20;;;;;;;;;;5060238;28;20515;-81
2021/09/18 06:36:04;;;;;;;2.58;1.30;;;;;;;;;;5066222;28;20043;-81
2021/09/18 06:38:30;;;;;;;1.90;1.15;;;;;;;;;;5052903;28;20095;-81
2021/09/18 06:40:58;;;;;;;2.53;1.23;;;;;;;;;;5063282;28;20025;-79
2021/09/18 06:43:25;;;;;;;2.00;1.10;;;;;;;;;;5064935;28;20137;-78
2021/09/18 06:45:52;;;;;;;2.20;1.10;;;;;;;;;;5059968;28;20044;-79
2021/09/18 06:48:18;;;;;;;2.05;1.15;;;;;;;;;;5052394;28;20071;-80
2021/09/18 06:50:45;;;;;;;2.83;1.10;;;;;;;;;;5046637;28;20067;-83
2021/09/18 06:53:11;;;;;;;4.43;2.20;;;;;;;;;;5067620;28;20640;-83
2021/09/18 06:55:37;;;;;;;12.23;3.45;;;;;;;;;;5064429;28;20056;-87
2021/09/18 06:58:05;;;;;;;5.57;2.05;;;;;;;;;;5079015;28;20109;-86
2021/09/18 07:00:32;;;;;;;4.88;1.80;;;;;;;;;;5078462;28;20055;-85
2021/09/18 07:02:58;;;;;;;3.20;1.73;;;;;;;;;;5064211;28;20109;-86
2021/09/18 07:05:26;;;;;;;6.45;1.85;;;;;;;;;;5079138;28;20496;-85
2021/09/18 07:07:53;;;;;;;3.75;2.15;;;;;;;;;;5079543;28;20040;-86
2021/09/18 07:10:19;;;;;;;3.35;1.95;;;;;;;;;;5048306;28;20045;-85
2021/09/18 07:12:46;;;;;;;4.80;2.10;;;;;;;;;;5054003;28;20119;-81
2021/09/18 07:15:14;;;;;;;4.40;2.30;;;;;;;;;;5068623;28;20060;-87
2021/09/18 07:17:40;;;;;;;4.53;2.25;;;;;;;;;;5048178;28;20083;-87
2021/09/18 07:20:08;;;;;;;5.38;2.45;;;;;;;;;;5045157;28;20624;-81
2021/09/18 07:22:34;;;;;;;6.20;2.53;;;;;;;;;;5066958;28;20039;-81
2021/09/18 07:25:01;;;;;;;3.92;2.30;;;;;;;;;;5068038;28;20520;-82
2021/09/18 07:27:28;;;;;;;3.95;2.47;;;;;;;;;;5044118;28;20036;-83
2021/09/18 07:29:57;;;;;;;7.05;2.42;;;;;;;;;;5065168;28;20060;-82
2021/09/18 07:32:24;;;;;;;5.20;2.30;;;;;;;;;;5078114;28;20403;-81
2021/09/18 07:34:50;;;;;;;6.80;3.90;;;;;;;;;;5059555;28;20146;-83
2021/09/18 07:37:17;;;;;;;6.68;4.10;;;;;;;;;;5087394;28;20601;-82
2021/09/18 07:39:43;;;;;;;6.22;2.60;;;;;;;;;;5069583;28;20135;-81
2021/09/18 07:42:10;;;;;;;5.60;2.33;;;;;;;;;;5068860;28;20068;-81
2021/09/18 07:44:36;;;;;;;8.57;2.45;;;;;;;;;;5056360;28;20060;-88
2021/09/18 07:47:03;;;;;;;4.90;2.25;;;;;;;;;;5057717;28;20036;-82
2021/09/18 07:49:29;;;;;;;3.45;1.77;;;;;;;;;;5075361;28;20048;-81
2021/09/18 07:51:56;;;;;;;4.82;1.90;;;;;;;;;;5060752;28;20036;-81
2021/09/18 07:54:22;;;;;;;2.50;1.60;;;;;;;;;;5086004;28;20060;-82
2021/09/18 07:56:49;;;;;;;2.90;1.83;;;;;;;;;;5081470;28;20032;-90
2021/09/18 07:59:15;;;;;;;3.60;1.50;;;;;;;;;;5068659;28;20059;-85
2021/09/18 08:01:42;;;;;;;3.03;1.52;;;;;;;;;;5062651;28;20043;-81
2021/09/18 08:04:08;;;;;;;3.88;1.80;;;;;;;;;;5062509;28;20060;-83
2021/09/18 08:06:36;;;;;;;5.15;1.83;;;;;;;;;;5055956;28;20063;-84
2021/09/18 08:09:04;;;;;;;3.00;1.60;;;;;;;;;;5055947;28;21262;-83
2021/09/18 08:11:30;;;;;;;2.25;1.63;;;;;;;;;;5081058;28;20071;-83
2021/09/18 08:13:57;;;;;;;3.22;1.83;;;;;;;;;;5067521;28;20028;-85
2021/09/18 08:16:24;;;;;;;2.97;1.73;;;;;;;;;;5057033;28;20068;-83
2021/09/18 08:18:51;;;;;;;4.80;1.60;;;;;;;;;;5080482;28;20754;-87
2021/09/18 08:21:17;;;;;;;3.58;1.60;;;;;;;;;;5050971;28;20133;-83
2021/09/18 08:23:45;;;;;;;2.63;1.60;;;;;;;;;;5063936;28;20048;-85
2021/09/18 08:26:11;;;;;;;3.53;1.70;;;;;;;;;;5077067;28;20059;-82
2021/09/18 08:28:38;;;;;;;3.70;1.98;;;;;;;;;;5073649;28;20089;-84
2021/09/18 08:31:05;;;;;;;3.60;1.90;;;;;;;;;;5057520;28;20036;-83
2021/09/18 08:33:32;;;;;;;3.72;1.60;;;;;;;;;;5060618;27;20704;-84
2021/09/18 08:35:58;;;;;;;2.70;1.67;;;;;;;;;;5068934;28;20052;-85
2021/09/18 08:38:26;;;;;;;3.90;1.50;;;;;;;;;;5060847;28;20079;-84
2021/09/18 08:40:54;;;;;;;2.60;1.50;;;;;;;;;;5071672;28;20056;-82
2021/09/18 08:43:20;;;;;;;4.35;1.58;;;;;;;;;;5078717;28;20101;-82
2021/09/18 08:45:48;;;;;;;2.33;1.52;;;;;;;;;;5078946;28;20115;-84
2021/09/18 08:48:16;;;;;;;2.70;1.80;;;;;;;;;;5063798;28;20109;-82
2021/09/18 08:50:43;;;;;;;2.58;1.40;;;;;;;;;;5046863;28;20119;-82
2021/09/18 08:53:10;;;;;;;2.53;1.50;;;;;;;;;;5045927;28;20118;-82
2021/09/18 08:55:36;;;;;;;2.85;1.73;;;;;;;;;;5047233;28;20056;-83
2021/09/18 08:58:03;;;;;;;3.42;1.73;;;;;;;;;;5054697;28;20097;-83
2021/09/18 09:00:33;;;;;;;2.38;1.63;;;;;;;;;;5075181;28;20036;-83
2021/09/18 09:03:02;;;;;;;3.10;1.70;;;;;;;;;;5058432;28;20438;-82
2021/09/18 09:05:29;;;;;;;2.97;1.50;;;;;;;;;;5064697;28;20058;-83
2021/09/18 09:08:09;;;;;;;3.35;1.60;;;;;;;;;;5074026;28;20047;-85
2021/09/18 09:10:37;;;;;;;2.50;1.58;;;;;;;;;;5081713;28;20114;-83
2021/09/18 09:13:07;;;;;;;4.13;1.60;;;;;;;;;;5082243;28;20444;-84
2021/09/18 09:15:34;;;;;;;2.70;1.57;;;;;;;;;;5067255;28;20064;-80
2021/09/18 09:18:16;;;;;;;2.47;1.67;;;;;;;;;;5082113;28;20125;-82
2021/09/18 09:20:42;;;;;;;2.53;1.77;;;;;;;;;;5081065;28;20068;-78
2021/09/18 09:23:16;;;;;;;6.85;2.15;;;;;;;;;;5086580;28;20503;-76
2021/09/18 09:25:43;;;;;;;11.15;2.20;;;;;;;;;;5081251;28;20082;-78
2021/09/18 09:28:29;;;;;;;5.85;1.80;;;;;;;;;;5052117;28;20101;-77
2021/09/18 09:31:01;;;;;;;6.78;2.20;;;;;;;;;;5065759;28;20445;-77
2021/09/18 09:33:28;;;;;;;5.78;1.80;;;;;;;;;;5057293;28;20106;-76
2021/09/18 09:35:54;;;;;;;8.68;2.22;;;;;;;;;;5062856;28;20056;-76
2021/09/18 09:38:21;;;;;;;3.65;1.88;;;;;;;;;;5078159;28;20067;-75
2021/09/18 09:40:48;;;;;;;7.63;2.58;;;;;;;;;;5064213;28;20137;-77
2021/09/18 09:43:15;;;;;;;5.18;2.28;;;;;;;;;;5064110;28;20056;-76
2021/09/18 09:45:42;;;;;;;5.28;1.88;;;;;;;;;;5059556;28;20032;-76
2021/09/18 09:48:10;;;;;;;4.40;2.45;;;;;;;;;;5077967;28;20035;-76
2021/09/18 09:50:38;;;;;;;7.78;2.00;;;;;;;;;;5056894;28;20052;-76
2021/09/18 09:53:06;;;;;;;5.72;2.00;;;;;;;;;;5083329;28;20077;-76
2021/09/18 09:55:36;;;;;;;4.75;2.13;;;;;;;;;;5083677;28;20056;-76
2021/09/18 09:58:07;;;;;;;6.30;1.87;;;;;;;;;;5082680;28;20063;-76
2021/09/18 10:00:42;;;;;;;4.47;2.13;;;;;;;;;;5081216;28;20483;-77
2021/09/18 10:03:09;;;;;;;8.18;2.22;;;;;;;;;;5078390;28;20056;-77
2021/09/18 10:05:36;;;;;;;5.20;2.17;;;;;;;;;;5059109;28;20361;-77
2021/09/18 10:08:03;;;;;;;6.68;2.13;;;;;;;;;;5081050;28;20048;-77
2021/09/18 10:10:30;;;;;;;6.63;2.10;;;;;;;;;;5081883;28;20060;-77
2021/09/18 10:12:57;;;;;;;4.35;1.98;;;;;;;;;;5072334;28;20529;-77
2021/09/18 10:15:27;;;;;;;4.45;2.90;;;;;;;;;;5073786;28;20044;-77
2021/09/18 10:17:55;;;;;;;3.92;2.03;;;;;;;;;;5066219;28;20101;-77
2021/09/18 10:25:37;;;;;;;4.03;2.13;;;;;;;;;;5065894;28;20086;-77
2021/09/18 10:28:09;;;;;;;4.32;2.08;;;;;;;;;;5065557;28;20845;-77
2021/09/18 10:30:35;;;;;;;;;;;;;;;;;;5065666;28;20125;-77
2021/09/18 10:33:02;;;;;;;4.75;1.80;;;;;;;;;;5067371;28;19936;-77
2021/09/18 10:35:30;;;;;;;6.53;2.22;;;;;;;;;;5072105;28;20608;-77
2021/09/18 10:37:56;;;;;;;5.70;2.03;;;;;;;;;;5078046;28;20137;-77
2021/09/18 10:40:23;;;;;;;4.28;2.05;;;;;;;;;;5085203;28;20461;-77
2021/09/18 10:42:50;;;;;;;5.35;2.30;;;;;;;;;;5082008;28;20064;-77
2021/09/18 10:45:19;;;;;;;5.97;2.00;;;;;;;;;;5043198;28;20076;-77
2021/09/18 10:47:52;;;;;;;3.88;1.95;;;;;;;;;;5068397;28;20059;-77
2021/09/18 10:50:21;;;;;;;5.30;2.10;;;;;;;;;;5083848;28;20055;-77
2021/09/18 10:53:04;;;;;;;4.28;1.92;;;;;;;;;;5087201;28;20048;-77
2021/09/18 10:55:31;;;;;;;3.25;2.03;;;;;;;;;;5087192;28;20496;-77
2021/09/18 10:57:57;;;;;;;5.45;2.47;;;;;;;;;;5076494;28;20068;-76
2021/09/18 11:00:24;;;;;;;4.28;2.25;;;;;;;;;;5067816;28;20082;-77
2021/09/18 11:02:51;;;;;;;5.65;2.15;;;;;;;;;;5087758;28;20424;-77
2021/09/18 11:05:21;;;;;;;3.92;2.03;;;;;;;;;;5088590;28;20107;-77
2021/09/18 11:07:48;;;;;;;3.28;2.00;;;;;;;;;;5088867;28;20056;-77
2021/09/18 11:10:35;;;;;;;4.82;2.13;;;;;;;;;;5078577;28;20538;-77
2021/09/18 11:13:07;;;;;;;3.63;1.75;;;;;;;;;;5058361;28;20097;-77
2021/09/18 11:15:40;;;;;;;4.40;1.90;;;;;;;;;;5075987;28;20504;-77
2021/09/18 11:18:14;;;;;;;2.90;1.98;;;;;;;;;;5084609;28;20076;-77
2021/09/18 11:20:40;;;;;;;5.18;2.10;;;;;;;;;;5079278;28;20040;-77
2021/09/18 11:23:07;;;;;;;3.10;2.08;;;;;;;;;;5079712;28;20091;-77
2021/09/18 11:25:34;;;;;;;3.58;2.10;;;;;;;;;;5086656;28;20488;-77
2021/09/18 11:28:04;;;;;;;3.20;2.00;;;;;;;;;;5086954;28;20809;-78
2021/09/18 11:30:39;;;;;;;7.75;2.47;;;;;;;;;;5086300;28;20458;-77
2021/09/18 11:33:06;;;;;;;5.28;2.17;;;;;;;;;;5081369;28;20429;-77
2021/09/18 11:35:33;;;;;;;4.35;2.13;;;;;;;;;;5087857;28;20051;-77
2021/09/18 11:38:00;;;;;;;4.03;1.90;;;;;;;;;;5088088;28;20561;-77
2021/09/18 11:40:28;;;;;;;3.20;2.00;;;;;;;;;;5086618;28;20060;-77
2021/09/18 11:42:58;;;;;;;3.38;2.25;;;;;;;;;;5086582;28;20066;-76
2021/09/18 11:45:25;;;;;;;4.28;1.92;;;;;;;;;;5086640;28;20113;-77
2021/09/18 11:47:53;;;;;;;4.90;2.03;;;;;;;;;;5066244;28;20053;-77
2021/09/18 11:50:21;;;;;;;3.65;1.92;;;;;;;;;;5068968;28;20091;-77
2021/09/18 11:52:48;;;;;;;3.95;1.90;;;;;;;;;;5082862;28;20085;-76
2021/09/18 11:55:28;;;;;;;3.33;2.03;;;;;;;;;;5085645;28;20100;-77
2021/09/18 11:58:05;;;;;;;3.38;2.10;;;;;;;;;;5072558;28;20061;-77
2021/09/18 12:00:31;;;;;;;4.25;2.10;;;;;;;;;;5083433;28;20477;-76
2021/09/18 12:02:58;;;;;;;4.55;1.70;;;;;;;;;;5085314;28;20062;-77
2021/09/18 12:05:25;;;;;;;4.80;1.80;;;;;;;;;;5087471;28;20063;-77
2021/09/18 12:07:51;;;;;;;3.50;2.00;;;;;;;;;;5063911;28;20036;-78
2021/09/18 12:10:22;;;;;;;4.10;2.10;;;;;;;;;;5068555;28;20033;-77
2021/09/18 12:12:54;;;;;;;3.13;1.90;;;;;;;;;;5067793;28;20056;-76
2021/09/18 12:15:20;;;;;;;;;;;;;;;;;;5060384;28;20092;-77
2021/09/18 12:17:46;;;;;;;3.53;2.03;;;;;;;;;;5056005;28;19952;-77
2021/09/18 12:20:13;;;;;;;4.07;1.90;;;;;;;;;;5053061;28;20577;-77
2021/09/18 12:22:40;;;;;;;5.20;2.20;;;;;;;;;;5075639;28;20048;-78
2021/09/18 12:25:07;;;;;;;3.90;2.03;;;;;;;;;;5063432;28;20071;-77
2021/09/18 12:27:36;;;;;;;3.50;2.10;;;;;;;;;;5077565;28;20145;-77
2021/09/18 12:30:10;;;;;;;3.92;2.00;;;;;;;;;;5085283;28;20060;-76
2021/09/18 12:32:37;;;;;;;5.55;2.25;;;;;;;;;;5075690;28;20068;-77
2021/09/18 12:35:10;;;;;;;3.47;1.80;;;;;;;;;;5068854;28;20112;-75
2021/09/18 12:37:39;;;;;;;3.88;1.90;;;;;;;;;;5065170;28;20060;-76
2021/09/18 12:40:14;;;;;;;3.25;2.00;;;;;;;;;;5061515;28;20048;-75
2021/09/18 12:42:41;;;;;;;3.92;1.95;;;;;;;;;;5085930;28;20067;-77
2021/09/18 12:45:20;;;;;;;3.35;2.10;;;;;;;;;;5086387;28;20481;-77
2021/09/18 12:47:46;;;;;;;3.53;2.00;;;;;;;;;;5083797;28;20127;-77
2021/09/18 12:50:17;;;;;;;4.28;1.90;;;;;;;;;;5087800;28;20112;-76
2021/09/18 12:52:43;;;;;;;3.75;2.03;;;;;;;;;;5086032;28;20115;-77
2021/09/18 12:55:10;;;;;;;3.35;1.85;;;;;;;;;;5086866;28;20047;-77
2021/09/18 12:57:36;;;;;;;3.03;2.03;;;;;;;;;;5084483;28;20060;-77
2021/09/18 13:00:10;;;;;;;4.45;2.15;;;;;;;;;;5068264;28;20071;-77
2021/09/18 13:02:36;;;;;;;3.35;1.80;;;;;;;;;;5063751;28;20437;-76
2021/09/18 13:05:03;;;;;;;4.47;1.98;;;;;;;;;;5069754;28;20063;-77
2021/09/18 13:07:30;;;;;;;3.75;2.28;;;;;;;;;;5084475;28;20506;-77
2021/09/18 13:09:58;;;;;;;6.40;1.80;;;;;;;;;;5075050;28;20127;-76
2021/09/18 13:12:24;;;;;;;4.10;2.30;;;;;;;;;;5085195;28;20056;-77
2021/09/18 13:14:52;;;;;;;3.15;1.83;;;;;;;;;;5083884;28;20056;-77
2021/09/18 13:17:20;;;;;;;3.88;2.00;;;;;;;;;;5084431;28;20063;-76
2021/09/18 13:19:49;;;;;;;2.90;1.90;;;;;;;;;;5073435;28;20124;-77
2021/09/18 13:22:16;;;;;;;4.03;2.00;;;;;;;;;;5067577;28;20116;-77
2021/09/18 13:24:43;;;;;;;2.90;1.98;;;;;;;;;;5073474;28;20054;-77
2021/09/18 13:27:09;;;;;;;3.42;2.03;;;;;;;;;;5079872;28;20525;-77
2021/09/18 13:29:37;;;;;;;3.20;1.95;;;;;;;;;;5065498;28;20060;-77
2021/09/18 13:32:05;;;;;;;3.17;2.15;;;;;;;;;;5081807;28;20070;-77
2021/09/18 13:34:31;;;;;;;2.72;2.17;;;;;;;;;;5083129;28;20068;-77
2021/09/18 13:36:58;;;;;;;3.25;2.03;;;;;;;;;;5064680;28;20452;-77
2021/09/18 13:39:24;;;;;;;4.35;2.20;;;;;;;;;;5080623;28;20500;-77
2021/09/18 13:41:51;;;;;;;3.67;2.20;;;;;;;;;;5072942;28;20060;-77
2021/09/18 13:44:18;;;;;;;4.13;2.08;;;;;;;;;;5069885;28;20061;-77
2021/09/18 13:46:44;;;;;;;3.33;2.03;;;;;;;;;;5082237;28;20071;-77
2021/09/18 13:49:11;;;;;;;4.05;1.92;;;;;;;;;;5050967;28;20075;-77
2021/09/18 13:51:38;;;;;;;2.97;1.98;;;;;;;;;;5064722;28;20052;-77
2021/09/18 13:54:05;;;;;;;2.95;1.90;;;;;;;;;;5085125;28;20070;-77
2021/09/18 13:56:31;;;;;;;2.88;1.75;;;;;;;;;;5067340;28;20137;-77
2021/09/18 13:58:58;;;;;;;2.95;1.80;;;;;;;;;;5065386;28;20448;-76
2021/09/18 14:01:24;;;;;;;3.38;2.10;;;;;;;;;;5063933;27;20059;-77
2021/09/18 14:03:52;;;;;;;3.88;2.17;;;;;;;;;;5067875;27;20059;-77
2021/09/18 14:06:19;;;;;;;3.80;1.85;;;;;;;;;;5085798;28;20059;-77
2021/09/18 14:08:45;;;;;;;3.67;1.90;;;;;;;;;;5072691;28;20056;-77
2021/09/18 14:11:12;;;;;;;3.45;1.92;;;;;;;;;;5065347;28;20047;-77
2021/09/18 14:13:39;;;;;;;2.90;1.92;;;;;;;;;;5089643;28;20492;-78
2021/09/18 14:16:05;;;;;;;4.18;1.80;;;;;;;;;;5075634;28;20035;-75
2021/09/18 14:18:31;;;;;;;5.25;2.08;;;;;;;;;;5083032;28;20123;-75
2021/09/18 14:20:59;;;;;;;2.85;1.92;;;;;;;;;;5083820;28;20067;-75
2021/09/18 14:23:25;;;;;;;3.53;1.98;;;;;;;;;;5084669;28;20060;-75
2021/09/18 14:25:52;;;;;;;2.97;1.92;;;;;;;;;;5083635;28;20581;-75
2021/09/18 14:28:19;;;;;;;3.85;2.05;;;;;;;;;;5075090;28;20116;-74
2021/09/18 14:30:46;;;;;;;3.00;1.92;;;;;;;;;;5090234;28;20032;-75
2021/09/18 14:33:12;;;;;;;3.65;1.98;;;;;;;;;;5088644;28;20077;-75
2021/09/18 14:35:39;;;;;;;3.00;1.83;;;;;;;;;;5090874;28;20031;-74
2021/09/18 14:38:05;;;;;;;2.90;1.70;;;;;;;;;;5090746;28;20093;-75
2021/09/18 14:40:31;;;;;;;3.60;2.22;;;;;;;;;;5087657;28;20040;-75
2021/09/18 14:42:58;;;;;;;2.30;1.60;;;;;;;;;;5079118;28;20053;-75
2021/09/18 14:45:24;;;;;;;3.00;1.77;;;;;;;;;;5082471;28;20048;-75
2021/09/18 14:47:51;;;;;;;5.05;1.90;;;;;;;;;;5086332;28;20036;-75
2021/09/18 14:50:17;;;;;;;4.25;1.85;;;;;;;;;;5068955;28;20040;-75